Time;durP1;ratioP1;P1;durP2;ratioP2;P2;SDS_P1;SDS_P2;PMS_P1;PMS_P2;Temp;Humidity;BMP_temperature;BMP_pressure;BME280_temperature;BME280_humidity;BME280_pressure;Samples;Min_cycle;Max_cycle;Signal;HPM_P1;HPM_P2
2022/06/02 00:02:17;;;;;;;14.40;3.10;;;;;;;20.78;59.13;99539.87;25050;1315;3051445;-64
2022/06/02 00:04:49;;;;;;;16.10;3.10;;;;;;;20.78;58.73;99541.39;25100;1315;3052741;-65
2022/06/02 00:07:25;;;;;;;10.50;3.20;;;;;;;20.79;58.33;99531.80;25056;1315;3028988;-64
2022/06/02 00:10:00;;;;;;;14.40;2.60;;;;;;;20.81;57.91;99528.25;25089;1315;3070998;-64
2022/06/02 00:12:47;;;;;;;9.70;2.90;;;;;;;20.84;57.56;99530.27;25070;1315;3048264;-64
2022/06/02 00:15:26;;;;;;;7.70;2.40;;;;;;;20.82;57.50;99535.05;25111;1315;3054957;-63
2022/06/02 00:18:10;;;;;;;12.70;2.90;;;;;;;20.82;57.44;99532.02;25131;1314;3055677;-63
2022/06/02 00:21:13;;;;;;;12.20;3.50;;;;;;;20.80;57.30;99524.61;25062;1315;3057631;-63
2022/06/02 00:23:46;;;;;;;9.70;2.70;;;;;;;20.76;57.33;99523.88;25008;1315;3051282;-63
2022/06/02 00:26:32;;;;;;;12.60;3.00;;;;;;;20.74;57.60;99523.37;25078;1315;3055154;-64
2022/06/02 00:29:08;;;;;;;15.50;3.10;;;;;;;20.73;57.46;99511.65;25087;1314;3053852;-61
2022/06/02 00:31:47;;;;;;;14.10;2.90;;;;;;;20.71;57.33;99508.91;25050;1315;3069507;-62
2022/06/02 00:34:39;;;;;;;21.20;3.10;;;;;;;20.73;57.34;99511.65;25102;1315;3053488;-64
2022/06/02 00:37:30;;;;;;;18.50;4.00;;;;;;;20.72;57.67;99508.73;25149;1315;3052290;-63
2022/06/02 00:39:59;;;;;;;16.10;3.40;;;;;;;20.71;57.55;99506.45;25063;1315;3055463;-63
2022/06/02 00:42:41;;;;;;;10.80;2.90;;;;;;;20.70;57.46;99511.17;25065;1316;3026783;-64
2022/06/02 00:45:15;;;;;;;11.20;2.70;;;;;;;20.69;57.36;99511.46;25028;1315;3052061;-64
2022/06/02 00:48:03;;;;;;;28.40;3.30;;;;;;;20.67;57.23;99509.36;25126;1315;3055513;-63
2022/06/02 00:50:43;;;;;;;12.10;2.60;;;;;;;20.67;57.20;99507.91;25085;1316;3052276;-63
2022/06/02 00:53:14;;;;;;;12.30;3.10;;;;;;;20.67;57.27;99506.68;25128;1315;3069632;-63
2022/06/02 00:59:23;;;;;;;14.70;3.90;;;;;;;20.59;57.56;99502.52;25076;1315;3055669;-63
2022/06/02 01:01:53;;;;;;;13.90;3.30;;;;;;;20.53;57.75;99504.55;25136;1315;3054610;-62
2022/06/02 01:04:22;;;;;;;8.90;3.30;;;;;;;20.51;57.82;99504.17;25090;1315;3026970;-62
2022/06/02 01:07:10;;;;;;;12.50;3.20;;;;;;;20.50;57.89;99507.66;25062;1314;3026597;-62
2022/06/02 01:09:48;;;;;;;13.50;3.00;;;;;;;20.49;58.01;99507.27;25042;1315;3055582;-62
2022/06/02 01:12:36;;;;;;;16.40;4.20;;;;;;;20.42;58.28;99508.98;25105;1315;3052675;-64
2022/06/02 01:15:28;;;;;;;10.00;3.10;;;;;;;20.41;58.27;99499.30;25023;1315;3071313;-63
2022/06/02 01:18:21;;;;;;;15.20;3.50;;;;;;;20.39;58.49;99503.40;25100;1315;3050566;-63
2022/06/02 01:21:14;;;;;;;20.70;3.80;;;;;;;20.36;58.68;99503.08;25078;1315;3055104;-63
2022/06/02 01:24:15;;;;;;;9.10;2.70;;;;;;;20.33;58.80;99503.86;25080;1315;3054283;-62
2022/06/02 01:26:50;;;;;;;19.50;3.80;;;;;;;20.30;58.84;99508.40;25064;1315;3056313;-63
2022/06/02 01:29:39;;;;;;;14.50;3.80;;;;;;;20.29;59.15;99509.25;25098;1315;3049719;-62
2022/06/02 01:32:10;;;;;;;11.30;3.40;;;;;;;20.25;59.46;99508.95;25069;1315;3055324;-62
2022/06/02 01:35:09;;;;;;;17.00;4.20;;;;;;;20.21;59.71;99509.52;25098;1316;3026859;-64
2022/06/02 01:37:54;;;;;;;12.80;3.60;;;;;;;20.21;59.83;99509.35;25110;1315;3070915;-62
2022/06/02 01:40:41;;;;;;;12.10;3.90;;;;;;;20.19;60.01;99512.02;25092;1315;3050052;-64
2022/06/02 01:43:14;;;;;;;16.10;3.90;;;;;;;20.17;60.53;99509.89;25090;1314;3055363;-62
2022/06/02 01:46:01;;;;;;;22.10;4.00;;;;;;;20.15;60.26;99506.73;25044;1315;3026347;-64
2022/06/02 01:48:35;;;;;;;24.10;4.70;;;;;;;20.20;59.99;99506.95;25055;1314;3059283;-62
2022/06/02 01:51:55;;;;;;;11.20;4.00;;;;;;;20.21;60.18;99504.52;25086;1315;3051490;-64
2022/06/02 01:54:50;;;;;;;14.90;4.40;;;;;;;20.19;60.56;99505.08;25073;1315;3055768;-61
2022/06/02 01:57:41;;;;;;;15.70;4.30;;;;;;;20.22;60.22;99510.33;25053;1315;3054032;-62
2022/06/02 02:00:15;;;;;;;16.30;4.20;;;;;;;20.23;60.14;99510.40;25083;1315;3070242;-63
2022/06/02 02:03:01;;;;;;;26.50;5.00;;;;;;;20.24;60.26;99514.41;25042;1315;3051351;-63
2022/06/02 02:06:00;;;;;;;18.20;4.10;;;;;;;20.21;60.61;99516.98;25066;1315;3055656;-63
2022/06/02 02:09:05;;;;;;;17.80;5.30;;;;;;;20.18;60.56;99514.64;25037;1315;3054940;-64
2022/06/02 02:11:51;;;;;;;16.20;4.70;;;;;;;20.19;60.55;99514.06;25109;1315;3056767;-63
2022/06/02 02:14:38;;;;;;;17.50;4.20;;;;;;;20.14;60.73;99513.90;24995;1315;3052608;-62
2022/06/02 02:17:20;;;;;;;15.30;4.80;;;;;;;20.14;60.89;99509.56;25039;1315;3052955;-62
2022/06/02 02:19:58;;;;;;;13.80;4.60;;;;;;;20.12;60.92;99506.88;25062;1315;3052600;-61
2022/06/02 02:22:36;;;;;;;22.70;4.80;;;;;;;20.10;60.89;99504.20;25126;1315;3070917;-63
2022/06/02 02:25:28;;;;;;;24.20;4.80;;;;;;;20.09;61.05;99502.75;25183;1315;3049109;-62
2022/06/02 02:28:05;;;;;;;16.80;4.00;;;;;;;20.05;61.32;99500.42;25062;1315;3054557;-62
2022/06/02 02:30:43;;;;;;;22.70;4.40;;;;;;;20.08;61.08;99504.42;25103;1315;3055607;-64
2022/06/02 02:33:37;;;;;;;15.40;4.10;;;;;;;20.08;61.21;99508.88;25068;1315;3058967;-63
2022/06/02 02:36:28;;;;;;;15.30;4.10;;;;;;;20.08;61.49;99514.02;25105;1315;3051193;-62
2022/06/02 02:39:00;;;;;;;16.30;5.00;;;;;;;20.02;61.62;99516.93;25105;1315;3054984;-63
2022/06/02 02:42:01;;;;;;;15.80;4.70;;;;;;;19.99;61.88;99513.11;25123;1314;3026650;-64
2022/06/02 02:44:34;;;;;;;21.20;5.30;;;;;;;20.01;62.17;99517.52;25020;1315;3071176;-62
2022/06/02 02:47:26;;;;;;;13.50;4.80;;;;;;;20.06;62.16;99517.40;25055;1315;3049715;-62
2022/06/02 02:50:05;;;;;;;22.80;4.80;;;;;;;20.08;62.28;99510.41;25055;1315;3054842;-64
2022/06/02 02:52:56;;;;;;;28.60;5.30;;;;;;;20.14;62.00;99518.73;25066;1315;3053126;-63
2022/06/02 02:55:29;;;;;;;15.90;5.10;;;;;;;20.20;62.01;99522.23;25048;1315;3058747;-61
2022/06/02 02:58:08;;;;;;;17.40;4.80;;;;;;;20.22;61.98;99522.23;25056;1315;3050678;-64
2022/06/02 03:00:41;;;;;;;20.50;5.40;;;;;;;20.23;62.19;99515.94;25041;1318;3055697;-62
2022/06/02 03:03:17;;;;;;;24.50;6.50;;;;;;;20.24;62.08;99517.65;25065;1315;3051946;-62
2022/06/02 03:05:56;;;;;;;22.90;5.50;;;;;;;20.25;62.16;99514.60;25113;1315;3068924;-65
2022/06/02 03:08:28;;;;;;;21.20;5.20;;;;;;;20.28;62.12;99513.58;25053;1315;3051242;-63
2022/06/02 03:11:01;;;;;;;19.20;6.40;;;;;;;20.35;62.03;99508.00;25074;1315;3026496;-62
2022/06/02 03:13:49;;;;;;;25.00;5.60;;;;;;;20.39;62.32;99503.59;25115;1315;3051856;-66
2022/06/02 03:16:18;;;;;;;22.10;5.40;;;;;;;20.41;62.21;99501.27;25096;1315;3059212;-62
2022/06/02 03:19:09;;;;;;;16.40;6.10;;;;;;;20.46;62.19;99504.35;25015;1315;3028150;-63
2022/06/02 03:21:57;;;;;;;18.90;5.70;;;;;;;20.52;62.25;99504.84;25094;1315;3054659;-62
2022/06/02 03:24:46;;;;;;;21.80;5.90;;;;;;;20.60;62.11;99503.60;25097;1315;3057361;-63
2022/06/02 03:27:37;;;;;;;27.30;6.10;;;;;;;20.64;62.42;99512.49;25081;1315;3052642;-64
2022/06/02 03:30:08;;;;;;;22.20;6.00;;;;;;;20.66;62.90;99516.45;25152;1315;3053834;-62
2022/06/02 03:32:48;;;;;;;26.00;6.00;;;;;;;20.69;62.87;99518.45;25076;1315;3026721;-63
2022/06/02 03:35:41;;;;;;;19.20;4.20;;;;;;;20.80;62.85;99517.86;25061;1315;3069025;-63
2022/06/02 03:38:19;;;;;;;16.90;5.10;;;;;;;21.68;61.40;99519.02;25063;1314;3051621;-61
2022/06/02 03:40:55;;;;;;;23.20;5.10;;;;;;;22.23;59.56;99521.02;25056;1315;3052248;-63
2022/06/02 03:43:30;;;;;;;21.80;5.90;;;;;;;22.34;59.50;99519.79;25164;1315;3055294;-65
2022/06/02 03:46:27;;;;;;;23.10;6.60;;;;;;;22.28;59.42;99518.83;25065;1315;3055882;-63
2022/06/02 03:49:12;;;;;;;33.40;7.10;;;;;;;22.20;59.60;99517.46;25046;1315;3052250;-63
2022/06/02 03:52:09;;;;;;;21.30;5.60;;;;;;;22.08;59.47;99511.14;25080;1315;3055596;-63
2022/06/02 03:54:59;;;;;;;29.00;6.70;;;;;;;21.96;60.07;99514.30;25021;1315;3051287;-65
2022/06/02 03:57:30;;;;;;;22.90;6.10;;;;;;;21.89;60.48;99512.46;25035;1315;3070877;-62
2022/06/02 04:00:27;;;;;;;32.60;6.40;;;;;;;21.86;60.94;99511.80;24657;1315;3677622;-63
2022/06/02 04:02:58;;;;;;;22.50;6.20;;;;;;;21.79;61.51;99505.20;25045;1315;3051859;-63
2022/06/02 04:05:53;;;;;;;21.80;6.10;;;;;;;21.76;61.72;99509.44;25069;1315;3027052;-63
2022/06/02 04:08:36;;;;;;;27.10;6.30;;;;;;;21.73;62.02;99509.56;25082;1315;3048765;-63
2022/06/02 04:11:19;;;;;;;24.90;7.70;;;;;;;21.73;62.03;99514.41;25121;1315;3052585;-61
2022/06/02 04:14:10;;;;;;;22.50;6.50;;;;;;;21.72;62.16;99518.11;25049;1315;3054974;-62
2022/06/02 04:16:54;;;;;;;29.60;7.50;;;;;;;21.74;62.55;99523.36;25059;1315;3058615;-63
2022/06/02 04:22:42;;;;;;;20.50;6.50;;;;;;;21.79;62.72;99518.80;25000;1315;3056108;-62
2022/06/02 04:25:17;;;;;;;26.60;7.60;;;;;;;21.79;62.39;99519.60;25151;1315;3051791;-64
2022/06/02 04:27:49;;;;;;;24.40;6.60;;;;;;;21.81;61.92;99526.73;25049;1315;3070787;-63
2022/06/02 04:30:33;;;;;;;21.30;7.20;;;;;;;21.83;62.13;99531.02;25038;1315;3026989;-62
2022/06/02 04:33:08;;;;;;;;;;;;;;;21.86;61.84;99531.74;25061;1314;3052311;-63
2022/06/02 04:36:02;;;;;;;23.40;6.30;;;;;;;21.80;62.42;99526.70;25030;1315;3055009;-63
2022/06/02 04:39:12;;;;;;;25.00;7.50;;;;;;;21.87;62.03;99532.59;25103;1315;3057297;-64
2022/06/02 04:42:05;;;;;;;29.20;7.20;;;;;;;21.94;62.13;99532.48;25107;1315;3050310;-63
2022/06/02 04:44:41;;;;;;;25.00;6.50;;;;;;;21.96;61.39;99528.86;25095;1315;3053679;-64
2022/06/02 04:47:43;;;;;;;27.60;8.20;;;;;;;21.99;60.84;99528.55;25041;1318;3053998;-62
2022/06/02 04:50:27;;;;;;;21.20;6.80;;;;;;;22.01;60.91;99530.09;25119;1313;3069328;-64
2022/06/02 04:53:15;;;;;;;21.70;5.70;;;;;;;22.06;61.05;99525.65;25148;1315;3049489;-64
2022/06/02 04:55:56;;;;;;;35.90;6.70;;;;;;;22.14;60.93;99530.17;25095;1313;3053009;-62
2022/06/02 04:58:44;;;;;;;29.30;6.60;;;;;;;22.17;61.07;99530.50;25138;1313;3052714;-62
2022/06/02 05:01:31;;;;;;;23.40;5.90;;;;;;;22.23;60.67;99530.23;25149;1313;3056266;-63
2022/06/02 05:04:37;;;;;;;29.10;6.70;;;;;;;22.30;61.04;99523.62;25072;1313;3050235;-66
2022/06/02 05:07:16;;;;;;;23.70;6.50;;;;;;;22.38;61.27;99524.80;25132;1313;3054550;-62
2022/06/02 05:10:25;;;;;;;21.60;6.00;;;;;;;22.46;61.18;99524.27;25116;1315;3055031;-62
2022/06/02 05:13:10;;;;;;;35.80;7.50;;;;;;;22.56;60.69;99525.14;25121;1313;3068706;-63
2022/06/02 05:15:46;;;;;;;27.40;6.20;;;;;;;22.64;60.56;99523.14;25136;1313;3052063;-63
2022/06/02 05:19:01;;;;;;;26.60;6.80;;;;;;;22.77;60.40;99527.44;25119;1313;3052664;-61
2022/06/02 05:21:44;;;;;;;23.80;6.20;;;;;;;22.90;59.88;99529.55;25114;1315;3054972;-63
2022/06/02 05:24:24;;;;;;;29.60;7.30;;;;;;;23.00;59.43;99532.77;25088;1315;3059626;-62
2022/06/02 05:27:16;;;;;;;23.90;6.20;;;;;;;23.12;59.13;99532.65;25123;1313;3049565;-63
2022/06/02 05:29:46;;;;;;;22.10;6.30;;;;;;;23.25;58.94;99534.66;25060;1315;3055840;-63
2022/06/02 05:32:34;;;;;;;27.90;6.70;;;;;;;23.36;58.97;99537.02;25137;1315;3028836;-64
2022/06/02 05:35:09;;;;;;;31.50;7.70;;;;;;;23.48;58.73;99533.19;25079;1313;3053017;-64
2022/06/02 05:38:01;;;;;;;22.00;6.30;;;;;;;23.56;58.71;99540.75;25125;1313;3054052;-63
2022/06/02 05:40:33;;;;;;;26.00;7.30;;;;;;;23.64;58.26;99546.86;25128;1313;3054293;-62
2022/06/02 05:43:25;;;;;;;26.30;7.10;;;;;;;23.72;58.09;99546.42;25101;1313;3029443;-62
2022/06/02 05:45:57;;;;;;;21.30;6.90;;;;;;;23.86;58.23;99550.06;25077;1314;3048889;-64
2022/06/02 05:48:34;;;;;;;29.60;6.70;;;;;;;23.91;58.09;99552.74;25103;1309;3029640;-62
2022/06/02 05:51:14;;;;;;;28.80;6.20;;;;;;;24.01;58.01;99552.87;25109;1309;3052838;-65
2022/06/02 05:54:09;;;;;;;27.80;6.70;;;;;;;24.08;58.10;99549.30;25149;1308;3057340;-65
2022/06/02 05:56:55;;;;;;;29.30;6.50;;;;;;;24.18;57.97;99547.52;25159;1309;3049467;-62
2022/06/02 05:59:31;;;;;;;27.70;6.20;;;;;;;24.27;57.59;99550.09;25137;1308;3055622;-64
2022/06/02 06:02:27;;;;;;;29.80;6.40;;;;;;;24.37;57.15;99549.84;25102;1309;3054258;-64
2022/06/02 06:05:14;;;;;;;23.90;6.30;;;;;;;24.48;56.93;99553.27;25122;1308;3072244;-62
2022/06/02 06:08:05;;;;;;;24.00;6.70;;;;;;;24.57;56.95;99551.95;25136;1308;3051692;-64
2022/06/02 06:10:53;;;;;;;26.20;6.20;;;;;;;24.71;56.52;99555.08;25131;1308;3053654;-64
2022/06/02 06:13:45;;;;;;;25.80;6.40;;;;;;;24.79;56.36;99552.15;25159;1308;3055203;-61
2022/06/02 06:16:20;;;;;;;24.30;6.70;;;;;;;24.84;55.93;99556.77;25205;1308;3058756;-63
2022/06/02 06:19:14;;;;;;;27.10;6.10;;;;;;;24.91;55.76;99554.87;25134;1309;3049881;-63
2022/06/02 06:22:04;;;;;;;30.70;6.70;;;;;;;24.99;55.87;99560.19;25160;1308;3055174;-64
2022/06/02 06:25:32;;;;;;;21.80;6.80;;;;;;;25.05;55.65;99561.53;25127;1308;3053797;-61
2022/06/02 06:28:16;;;;;;;23.10;6.10;;;;;;;25.13;55.51;99554.58;25109;1309;3071069;-64
2022/06/02 06:30:49;;;;;;;28.40;6.50;;;;;;;25.22;54.87;99550.71;25201;1308;3048767;-63
2022/06/02 06:33:37;;;;;;;;;;;;;;;25.33;54.73;99551.83;25183;1308;3052143;-64
2022/06/02 06:36:06;;;;;;;32.50;6.10;;;;;;;25.39;54.51;99551.96;25159;1310;3052900;-64
2022/06/02 06:38:45;;;;;;;27.80;5.80;;;;;;;25.50;54.27;99550.11;25138;1308;3026517;-64
2022/06/02 06:41:30;;;;;;;25.30;6.20;;;;;;;25.58;54.17;99548.95;25114;1309;3055231;-62
2022/06/02 06:44:10;;;;;;;28.00;6.00;;;;;;;25.64;54.54;99546.05;25176;1309;3053276;-63
2022/06/02 06:46:56;;;;;;;23.60;6.20;;;;;;;25.73;54.26;99547.27;25103;1309;3058442;-63
2022/06/02 06:49:45;;;;;;;27.50;6.00;;;;;;;25.87;53.95;99548.98;25295;1308;3049874;-63
2022/06/02 06:52:40;;;;;;;35.00;6.70;;;;;;;26.00;53.50;99548.13;25270;1308;3052475;-63
2022/06/02 06:55:24;;;;;;;26.50;5.80;;;;;;;26.09;54.32;99546.06;25175;1309;3051764;-66
2022/06/02 06:58:25;;;;;;;27.60;6.20;;;;;;;26.23;53.75;99545.90;25119;1308;3069394;-63
2022/06/02 07:01:09;;;;;;;24.60;6.40;;;;;;;26.31;53.60;99541.53;25141;1312;3052226;-63
2022/06/02 07:03:51;;;;;;;33.60;6.00;;;;;;;26.35;53.13;99551.70;25148;1308;3052510;-63
2022/06/02 07:06:44;;;;;;;38.60;6.00;;;;;;;26.50;51.92;99554.30;25127;1309;3054948;-64
2022/06/02 07:09:40;;;;;;;23.90;6.20;;;;;;;26.66;51.55;99554.04;25191;1308;3057566;-64
2022/06/02 07:15:14;;;;;;;24.00;5.80;;;;;;;26.98;51.01;99553.58;25070;1309;3055358;-64
2022/06/02 07:17:59;;;;;;;17.40;5.70;;;;;;;27.08;51.65;99556.61;25156;1308;3054388;-65
2022/06/02 07:20:48;;;;;;;19.10;5.50;;;;;;;27.22;51.46;99555.37;25218;1308;3070882;-63
2022/06/02 07:23:45;;;;;;;18.30;5.70;;;;;;;27.31;50.76;99556.31;25136;1308;3053530;-67
2022/06/02 07:26:36;;;;;;;19.80;6.10;;;;;;;27.38;50.34;99559.24;25158;1308;3055401;-63
2022/06/02 07:29:23;;;;;;;28.50;5.90;;;;;;;27.46;50.57;99554.92;25146;1308;3051722;-65
2022/06/02 07:32:14;;;;;;;18.70;5.30;;;;;;;27.53;50.49;99552.21;25264;1308;3055851;-66
2022/06/02 07:35:04;;;;;;;33.00;5.90;;;;;;;27.52;50.20;99550.38;25119;1310;3053858;-66
2022/06/02 07:37:34;;;;;;;25.40;5.50;;;;;;;27.49;49.65;99547.17;25084;1309;3053444;-64
2022/06/02 07:40:27;;;;;;;28.40;5.90;;;;;;;27.55;50.15;99544.75;25124;1308;3027372;-63
2022/06/02 07:43:15;;;;;;;25.70;5.70;;;;;;;27.70;50.14;99548.81;25185;1309;3071141;-62
2022/06/02 07:45:55;;;;;;;19.10;5.40;;;;;;;27.77;49.75;99546.48;25245;1310;3053756;-65
2022/06/02 07:49:00;;;;;;;20.90;5.10;;;;;;;27.83;49.13;99545.54;25226;1308;3052337;-65
2022/06/02 07:51:55;;;;;;;24.50;5.50;;;;;;;27.95;48.58;99550.80;25057;1312;3055627;-63
2022/06/02 07:54:38;;;;;;;25.80;5.00;;;;;;;28.06;48.47;99553.96;25180;1309;3056881;-64
2022/06/02 07:57:16;;;;;;;18.00;4.90;;;;;;;28.03;47.30;99560.05;25060;1310;3052313;-64
2022/06/02 08:00:03;;;;;;;18.60;4.50;;;;;;;28.08;47.18;99556.36;25176;1310;3055798;-64
2022/06/02 08:02:38;;;;;;;20.30;4.60;;;;;;;28.20;47.47;99557.55;25107;1311;3054566;-65
2022/06/02 08:05:08;;;;;;;18.40;4.50;;;;;;;28.29;47.69;99554.77;25969;1308;3068693;-64
2022/06/02 08:07:40;;;;;;;15.50;4.80;;;;;;;28.38;47.79;99557.02;25190;1309;3026587;-64
2022/06/02 08:10:19;;;;;;;16.60;5.30;;;;;;;28.44;47.28;99557.52;25175;1308;3027304;-65
2022/06/02 08:13:00;;;;;;;17.30;4.90;;;;;;;28.48;47.19;99559.67;25149;1310;3055459;-63
2022/06/02 08:15:53;;;;;;;23.90;4.40;;;;;;;28.56;46.59;99557.97;25134;1309;3059456;-66
2022/06/02 08:18:44;;;;;;;25.00;4.80;;;;;;;28.67;46.35;99557.29;25161;1309;3052160;-64
2022/06/02 08:21:53;;;;;;;23.30;5.10;;;;;;;28.62;45.38;99554.61;25121;1308;3054014;-64
2022/06/02 08:24:38;;;;;;;20.40;4.30;;;;;;;28.69;46.16;99554.91;25071;1315;3051923;-63
2022/06/02 08:27:46;;;;;;;16.50;4.50;;;;;;;28.83;46.25;99557.65;25150;1310;3071877;-62
2022/06/02 08:30:19;;;;;;;26.20;4.70;;;;;;;28.91;46.05;99556.71;25163;1309;3051854;-64
2022/06/02 08:32:57;;;;;;;27.80;5.00;;;;;;;29.04;45.69;99553.18;25172;1308;3026484;-63
2022/06/02 08:35:40;;;;;;;22.00;4.40;;;;;;;29.09;44.07;99555.75;25113;1308;3055584;-63
2022/06/02 08:38:24;;;;;;;18.00;4.20;;;;;;;29.15;43.80;99551.24;25073;1313;3057041;-64
2022/06/02 08:44:12;;;;;;;27.80;4.80;;;;;;;29.35;44.80;99553.45;25170;1308;3056025;-65
2022/06/02 08:47:20;;;;;;;16.10;4.20;;;;;;;29.50;44.06;99552.44;25155;1309;3051556;-63
2022/06/02 08:50:29;;;;;;;45.50;4.80;;;;;;;29.62;43.29;99551.47;25073;1309;3070889;-63
2022/06/02 08:53:23;;;;;;;30.50;5.70;;;;;;;29.73;42.14;99551.02;25069;1310;3050913;-63
2022/06/02 08:55:59;;;;;;;;;;;;;;;29.78;41.97;99548.17;25162;1310;3053937;-64
2022/06/02 08:58:43;;;;;;;24.00;4.70;;;;;;;29.81;39.53;99542.88;25135;1309;3055052;-64
2022/06/02 09:01:31;;;;;;;15.70;3.90;;;;;;;29.81;39.51;99543.77;25185;1308;3059003;-65
2022/06/02 09:04:00;;;;;;;27.80;4.20;;;;;;;29.92;40.07;99538.99;25088;1309;3049962;-62
2022/06/02 09:06:57;;;;;;;22.30;4.00;;;;;;;30.02;40.62;99541.30;25162;1309;3026689;-63
2022/06/02 09:09:35;;;;;;;15.50;3.90;;;;;;;30.06;39.99;99541.78;25161;1308;3056443;-61
2022/06/02 09:12:50;;;;;;;20.10;4.10;;;;;;;30.17;40.65;99547.58;25176;1308;3053182;-66
2022/06/02 09:16:04;;;;;;;29.60;4.30;;;;;;;30.29;39.96;99547.86;24991;1318;3053682;-64
2022/06/02 09:18:55;;;;;;;26.80;4.20;;;;;;;30.27;40.37;99543.99;25324;1315;3053758;-66
2022/06/02 09:21:33;;;;;;;12.20;4.00;;;;;;;30.21;40.35;99546.05;25142;1316;3068491;-63
2022/06/02 09:24:05;;;;;;;23.70;4.50;;;;;;;30.31;40.41;99550.55;25188;1310;3049474;-62
2022/06/02 09:27:22;;;;;;;19.10;4.70;;;;;;;30.36;40.06;99547.23;25109;1309;3026806;-64
2022/06/02 09:30:07;;;;;;;17.80;3.80;;;;;;;30.45;39.66;99549.11;25066;1315;3053334;-66
2022/06/02 09:32:46;;;;;;;18.20;3.30;;;;;;;30.55;39.66;99550.71;25098;1310;3058635;-62
2022/06/02 09:35:20;;;;;;;18.10;3.40;;;;;;;30.54;39.80;99551.27;25182;1311;3052681;-62
2022/06/02 09:38:05;;;;;;;17.70;4.00;;;;;;;30.73;40.32;99555.64;25142;1308;3053157;-62
2022/06/02 09:41:12;;;;;;;18.70;3.80;;;;;;;30.64;38.71;99558.33;25245;1309;3053579;-65
2022/06/02 09:44:04;;;;;;;17.20;3.60;;;;;;;30.58;39.40;99550.73;25208;1309;3071324;-64
2022/06/02 09:46:51;;;;;;;23.20;4.10;;;;;;;30.63;39.65;99548.88;25131;1310;3049903;-63
2022/06/02 09:49:40;;;;;;;16.00;4.10;;;;;;;30.85;39.69;99547.16;25127;1310;3055595;-63
2022/06/02 09:53:18;;;;;;;24.30;4.00;;;;;;;31.03;39.17;99542.91;25115;1309;3054817;-64
2022/06/02 09:56:23;;;;;;;18.50;4.30;;;;;;;31.19;38.84;99544.30;25281;1316;3058380;-62
2022/06/02 09:59:27;;;;;;;36.80;4.50;;;;;;;31.31;38.86;99544.16;25016;1316;3050170;-64
2022/06/02 10:02:00;;;;;;;21.10;3.70;;;;;;;31.38;39.06;99537.25;25209;1309;3054274;-63
2022/06/02 10:04:57;;;;;;;12.30;4.00;;;;;;;31.31;39.10;99539.39;25158;1309;3050487;-65
2022/06/02 10:08:00;;;;;;;18.60;3.60;;;;;;;31.39;38.67;99538.02;25210;1309;3071638;-63
2022/06/02 10:10:44;;;;;;;18.50;3.70;;;;;;;31.45;38.12;99532.77;25099;1310;3049448;-63
2022/06/02 10:13:31;;;;;;;18.30;3.80;;;;;;;31.53;38.41;99533.85;25131;1308;3053329;-64
2022/06/02 10:16:20;;;;;;;20.00;4.00;;;;;;;31.67;38.16;99537.79;25185;1312;3055001;-63
2022/06/02 10:19:16;;;;;;;21.30;3.90;;;;;;;31.73;38.35;99533.92;25197;1309;3055711;-64
2022/06/02 10:21:52;;;;;;;15.10;3.70;;;;;;;31.88;38.20;99531.38;25880;1308;3049446;-63
2022/06/02 10:24:59;;;;;;;20.60;4.10;;;;;;;31.94;37.19;99529.33;25136;1309;3052002;-63
2022/06/02 10:28:11;;;;;;;18.70;4.00;;;;;;;32.05;36.92;99529.38;25273;1308;3052315;-64
2022/06/02 10:31:07;;;;;;;19.00;3.50;;;;;;;31.98;36.97;99529.10;25218;1309;3069637;-62
2022/06/02 10:33:52;;;;;;;18.40;4.40;;;;;;;31.72;36.22;99524.68;25184;1312;3051317;-64
2022/06/02 10:36:40;;;;;;;23.20;4.10;;;;;;;31.90;36.83;99530.14;25105;1309;3052451;-65
2022/06/02 10:39:16;;;;;;;16.80;3.70;;;;;;;32.07;37.03;99528.67;25151;1311;3053195;-62
2022/06/02 10:42:09;;;;;;;25.10;4.30;;;;;;;32.11;37.03;99526.17;25110;1310;3056590;-64
2022/06/02 10:45:17;;;;;;;23.80;4.50;;;;;;;32.32;36.68;99525.49;25116;1312;3050879;-63
2022/06/02 10:48:17;;;;;;;13.70;4.00;;;;;;;32.56;35.65;99526.30;25154;1309;3054539;-62
2022/06/02 10:51:08;;;;;;;18.10;3.70;;;;;;;32.63;35.92;99520.78;25207;1309;3053965;-64
2022/06/02 10:54:08;;;;;;;22.20;3.80;;;;;;;32.78;35.71;99519.24;25121;1309;3071694;-64
2022/06/02 10:57:00;;;;;;;22.50;4.40;;;;;;;32.86;35.16;99511.26;25152;1309;3051926;-64
2022/06/02 10:59:35;;;;;;;14.60;3.90;;;;;;;32.91;35.45;99512.39;25159;1313;3054856;-64
2022/06/02 11:02:29;;;;;;;24.00;3.60;;;;;;;33.03;34.91;99507.65;25116;1309;3054919;-62
2022/06/02 11:05:26;;;;;;;19.90;4.20;;;;;;;33.11;34.76;99511.95;25200;1310;3059715;-64
2022/06/02 11:08:13;;;;;;;19.90;3.80;;;;;;;33.08;34.06;99507.90;25119;1310;3049478;-62
2022/06/02 11:11:24;;;;;;;12.70;3.80;;;;;;;33.13;34.29;99502.85;25150;1310;3055942;-63
2022/06/02 11:14:22;;;;;;;22.40;3.30;;;;;;;33.32;34.29;99498.23;25233;1309;3054217;-64
2022/06/02 11:17:13;;;;;;;20.00;4.00;;;;;;;33.31;33.80;99501.76;25211;1310;3071679;-61
2022/06/02 11:19:55;;;;;;;17.20;3.70;;;;;;;33.44;32.78;99495.95;25175;1310;3048538;-64
2022/06/02 11:22:27;;;;;;;20.60;3.00;;;;;;;33.54;32.32;99494.68;25132;1312;3052008;-63
2022/06/02 11:25:19;;;;;;;22.00;3.60;;;;;;;33.57;32.21;99492.28;25127;1309;3026928;-64
2022/06/02 11:28:04;;;;;;;22.60;3.60;;;;;;;33.74;31.58;99494.61;25068;1313;3059224;-62
2022/06/02 11:30:47;;;;;;;14.80;3.30;;;;;;;33.90;31.01;99488.54;25170;1309;3051679;-62
2022/06/02 11:33:18;;;;;;;26.80;3.70;;;;;;;34.00;30.85;99487.23;25084;1309;3053173;-62
2022/06/02 11:36:25;;;;;;;18.10;4.00;;;;;;;34.03;31.63;99484.10;25161;1308;3026769;-62
2022/06/02 11:39:12;;;;;;;24.20;3.60;;;;;;;34.03;32.06;99489.89;25112;1309;3071736;-63
2022/06/02 11:42:39;;;;;;;18.50;3.80;;;;;;;33.98;31.62;99489.27;25172;1308;3049828;-63
2022/06/02 11:45:24;;;;;;;26.30;3.90;;;;;;;34.12;32.03;99488.77;24982;1319;3055475;-61
2022/06/02 11:48:02;;;;;;;20.10;3.90;;;;;;;34.31;31.70;99488.83;25056;1318;3055429;-61
2022/06/02 11:50:43;;;;;;;24.70;3.80;;;;;;;34.43;31.24;99491.85;25118;1311;3059401;-65
2022/06/02 11:53:19;;;;;;;17.10;3.90;;;;;;;34.54;31.14;99488.23;25085;1309;3053117;-65
2022/06/02 11:56:00;;;;;;;22.60;3.70;;;;;;;34.45;30.86;99488.56;25170;1309;3055608;-66
2022/06/02 11:58:51;;;;;;;12.80;3.10;;;;;;;34.44;31.22;99485.32;25247;1309;3051453;-65
2022/06/02 12:01:52;;;;;;;16.90;4.00;;;;;;;34.48;31.41;99480.84;25199;1310;3071269;-65
2022/06/02 12:04:36;;;;;;;18.30;3.40;;;;;;;34.63;31.11;99476.20;25075;1312;3051826;-65
2022/06/02 12:07:43;;;;;;;13.80;3.50;;;;;;;34.44;30.53;99470.91;25202;1312;3052316;-65
2022/06/02 12:10:30;;;;;;;25.90;3.80;;;;;;;34.28;30.77;99472.57;25078;1309;3054858;-65
2022/06/02 12:13:01;;;;;;;22.30;3.80;;;;;;;34.59;30.71;99473.70;25134;1309;3057395;-65
2022/06/02 12:15:54;;;;;;;20.70;3.70;;;;;;;34.79;30.40;99470.33;25156;1309;3026585;-66
2022/06/02 12:19:02;;;;;;;17.00;3.50;;;;;;;34.96;29.78;99467.12;25102;1309;3054991;-65
2022/06/02 12:21:49;;;;;;;16.30;3.40;;;;;;;35.14;30.05;99460.59;25176;1309;3057126;-66
2022/06/02 12:25:02;;;;;;;15.90;3.50;;;;;;;35.25;29.16;99455.64;25178;1308;3052267;-65
2022/06/02 12:27:46;;;;;;;17.20;3.40;;;;;;;35.27;28.93;99447.15;25175;1308;3055317;-64
2022/06/02 12:30:39;;;;;;;26.00;3.60;;;;;;;35.29;28.58;99442.09;25208;1309;3051660;-66
2022/06/02 12:33:26;;;;;;;21.90;3.30;;;;;;;35.08;29.02;99438.87;25116;1309;3071829;-64
2022/06/02 12:36:04;;;;;;;24.60;3.80;;;;;;;35.18;28.83;99433.23;25152;1310;3049629;-65
2022/06/02 12:38:46;;;;;;;20.30;4.20;;;;;;;35.26;29.19;99431.27;25129;1309;3055487;-65
2022/06/02 12:41:54;;;;;;;29.70;3.80;;;;;;;35.31;28.58;99422.64;25148;1309;3052872;-65
2022/06/02 12:44:32;;;;;;;21.70;3.30;;;;;;;35.19;28.44;99416.44;25132;1310;3056286;-65
2022/06/02 12:47:35;;;;;;;20.40;3.20;;;;;;;35.20;29.09;99413.23;25150;1309;3052674;-63
2022/06/02 12:50:06;;;;;;;17.60;3.80;;;;;;;35.05;28.82;99408.91;25068;1311;3056044;-65
2022/06/02 12:52:48;;;;;;;19.10;3.70;;;;;;;35.28;29.03;99405.06;25220;1309;3026771;-65